Time;durP1;ratioP1;P1;durP2;ratioP2;P2;SDS_P1;SDS_P2;PMS_P1;PMS_P2;Temp;Humidity;BMP_temperature;BMP_pressure;BME280_temperature;BME280_humidity;BME280_pressure;Samples;Min_cycle;Max_cycle;Signal;HPM_P1;HPM_P2
2023/10/27 00:00:07;;;;;;;4.37;2.83;;;13.10;99.90;;;;;;5033413;28;20184;-71
2023/10/27 00:02:42;;;;;;;6.07;2.93;;;12.90;99.90;;;;;;5033505;28;20194;-71
2023/10/27 00:05:08;;;;;;;4.60;2.47;;;12.90;99.90;;;;;;5033625;28;20456;-71
2023/10/27 00:07:33;;;;;;;3.20;2.40;;;12.90;99.90;;;;;;5033382;28;20410;-72
2023/10/27 00:09:59;;;;;;;3.30;2.47;;;12.70;99.90;;;;;;5034139;28;20180;-70
2023/10/27 00:12:25;;;;;;;4.00;1.90;;;12.90;99.90;;;;;;5033159;28;20576;-71
2023/10/27 00:14:51;;;;;;;5.27;2.87;;;13.00;99.90;;;;;;5033020;28;20670;-71
2023/10/27 00:17:16;;;;;;;4.77;2.63;;;12.80;99.90;;;;;;5032782;28;20452;-71
2023/10/27 00:19:42;;;;;;;6.30;2.63;;;12.90;99.90;;;;;;5032364;28;20211;-71
2023/10/27 00:22:07;;;;;;;3.80;2.40;;;12.90;99.90;;;;;;5033016;28;20191;-70
2023/10/27 00:24:33;;;;;;;6.13;2.87;;;13.00;99.90;;;;;;5033285;28;20240;-70
2023/10/27 00:26:58;;;;;;;2.30;1.80;;;13.00;99.90;;;;;;5032768;28;20257;-70
2023/10/27 00:29:24;;;;;;;1.87;1.70;;;12.90;99.90;;;;;;5032786;28;20174;-71
2023/10/27 00:31:49;;;;;;;6.50;3.10;;;12.90;99.90;;;;;;5032717;28;20235;-72
2023/10/27 00:34:15;;;;;;;7.30;2.53;;;13.00;99.90;;;;;;5032685;28;20178;-71
2023/10/27 00:36:40;;;;;;;5.77;2.30;;;12.90;99.90;;;;;;5032645;28;20253;-70
2023/10/27 00:39:06;;;;;;;4.90;1.87;;;12.80;99.90;;;;;;5032533;28;20236;-71
2023/10/27 00:41:32;;;;;;;2.40;1.87;;;12.80;99.90;;;;;;5032682;28;20182;-71
2023/10/27 00:43:58;;;;;;;4.03;2.53;;;12.90;99.90;;;;;;5032597;28;20198;-70
2023/10/27 00:46:23;;;;;;;4.60;2.20;;;12.90;99.90;;;;;;5032186;28;20226;-70
2023/10/27 00:48:49;;;;;;;5.70;2.37;;;12.80;99.90;;;;;;5032363;28;20441;-70
2023/10/27 00:51:15;;;;;;;4.37;2.40;;;12.80;99.90;;;;;;5032456;28;20547;-71
2023/10/27 00:53:41;;;;;;;4.53;2.40;;;12.80;99.90;;;;;;5032187;28;20198;-71
2023/10/27 00:56:07;;;;;;;5.30;2.97;;;12.80;99.90;;;;;;5032998;28;20175;-71
2023/10/27 00:58:33;;;;;;;2.73;2.33;;;12.60;99.90;;;;;;5032399;28;20187;-71
2023/10/27 01:01:03;;;;;;;4.50;2.23;;;12.50;99.90;;;;;;5032126;28;20509;-70
2023/10/27 01:03:29;;;;;;;7.70;2.20;;;12.40;99.90;;;;;;5031924;28;20433;-71
2023/10/27 01:05:55;;;;;;;3.43;1.90;;;12.50;99.90;;;;;;5031976;28;20417;-70
2023/10/27 01:08:20;;;;;;;2.73;2.17;;;12.60;99.90;;;;;;5031730;28;20779;-70
2023/10/27 01:10:46;;;;;;;3.50;2.17;;;12.60;99.90;;;;;;5032214;28;20543;-70
2023/10/27 01:13:12;;;;;;;4.97;2.40;;;12.50;99.90;;;;;;5031762;28;20263;-71
2023/10/27 01:15:37;;;;;;;4.17;2.20;;;12.60;99.90;;;;;;5032119;28;20197;-71
2023/10/27 01:18:03;;;;;;;2.50;1.80;;;12.50;99.90;;;;;;5031778;28;20199;-70
2023/10/27 01:20:28;;;;;;;6.17;2.50;;;12.50;99.90;;;;;;5032159;28;20171;-71
2023/10/27 01:22:54;;;;;;;3.93;2.10;;;12.50;99.90;;;;;;5032253;28;20568;-70
2023/10/27 01:25:19;;;;;;;3.60;2.03;;;12.60;99.90;;;;;;5031795;28;20166;-71
2023/10/27 01:27:45;;;;;;;3.07;2.00;;;12.70;99.90;;;;;;5031763;28;20182;-71
2023/10/27 01:30:11;;;;;;;4.20;2.00;;;12.60;99.90;;;;;;5032131;28;20177;-72
2023/10/27 01:32:38;;;;;;;4.93;1.93;;;12.70;99.90;;;;;;5031943;28;20196;-70
2023/10/27 01:35:04;;;;;;;2.20;1.90;;;12.70;99.90;;;;;;5036790;28;20756;-71
2023/10/27 01:37:29;;;;;;;3.47;2.07;;;12.80;99.90;;;;;;5038428;28;20413;-71
2023/10/27 01:39:56;;;;;;;2.30;1.87;;;12.80;99.90;;;;;;5038576;28;20861;-71
2023/10/27 01:42:22;;;;;;;3.10;1.93;;;12.80;99.90;;;;;;5038400;28;20535;-70
2023/10/27 01:44:48;;;;;;;3.70;2.03;;;12.80;99.90;;;;;;5038472;28;20440;-71
2023/10/27 01:47:14;;;;;;;2.40;1.60;;;12.80;99.90;;;;;;5038277;28;20442;-71
2023/10/27 01:49:39;;;;;;;4.50;2.10;;;12.80;99.90;;;;;;5038196;28;20174;-71
2023/10/27 01:52:05;;;;;;;4.10;1.70;;;12.90;99.90;;;;;;5038301;28;20519;-71
2023/10/27 01:54:30;;;;;;;5.80;2.37;;;12.90;99.90;;;;;;5038294;28;20665;-71
2023/10/27 01:56:56;;;;;;;4.37;1.80;;;13.00;99.90;;;;;;5038035;28;20176;-71
2023/10/27 01:59:21;;;;;;;3.23;1.63;;;13.00;99.90;;;;;;5038089;28;20209;-70
2023/10/27 02:01:47;;;;;;;6.27;2.03;;;13.00;99.90;;;;;;5037993;28;20265;-70
2023/10/27 02:04:12;;;;;;;3.23;1.63;;;13.00;99.90;;;;;;5038245;28;20173;-70
2023/10/27 02:06:38;;;;;;;2.50;1.47;;;13.00;99.90;;;;;;5038106;28;20173;-71
2023/10/27 02:09:03;;;;;;;2.80;2.00;;;12.90;99.90;;;;;;5038277;28;20201;-71
2023/10/27 02:11:29;;;;;;;1.87;1.60;;;12.90;99.90;;;;;;5038244;28;20173;-71
2023/10/27 02:13:54;;;;;;;1.93;1.50;;;12.90;99.90;;;;;;5062528;22;20230;-71
2023/10/27 02:16:20;;;;;;;3.40;1.70;;;12.90;99.90;;;;;;5039042;28;20171;-72
2023/10/27 02:18:45;;;;;;;3.00;1.57;;;12.90;99.90;;;;;;5038866;28;20196;-71
2023/10/27 02:21:11;;;;;;;3.27;1.73;;;12.90;99.90;;;;;;5038624;28;20170;-71
2023/10/27 02:23:36;;;;;;;3.97;1.93;;;12.90;99.90;;;;;;5038798;28;20192;-71
2023/10/27 02:26:02;;;;;;;2.60;1.97;;;12.90;99.90;;;;;;5038769;28;20166;-70
2023/10/27 02:28:28;;;;;;;2.20;1.37;;;12.80;99.90;;;;;;5020985;28;20170;-71
2023/10/27 02:30:53;;;;;;;2.43;1.60;;;12.80;99.90;;;;;;5038786;28;20172;-71
2023/10/27 02:33:19;;;;;;;3.67;2.20;;;12.70;99.90;;;;;;5039097;28;20194;-72
2023/10/27 02:35:44;;;;;;;3.40;1.70;;;12.80;99.90;;;;;;5038669;28;20198;-71
2023/10/27 02:38:10;;;;;;;4.50;1.77;;;12.90;99.90;;;;;;5038136;28;20186;-72
2023/10/27 02:40:35;;;;;;;2.20;1.43;;;12.90;99.90;;;;;;5038673;28;20169;-72
2023/10/27 02:43:01;;;;;;;2.23;1.57;;;13.00;99.90;;;;;;5039239;28;20672;-72
2023/10/27 02:45:26;;;;;;;3.20;2.03;;;13.00;99.90;;;;;;5037185;28;20180;-71
2023/10/27 02:47:52;;;;;;;3.73;1.90;;;13.00;99.90;;;;;;5035380;28;20584;-72
2023/10/27 02:50:17;;;;;;;1.87;1.57;;;13.00;99.90;;;;;;5036294;28;20195;-72
2023/10/27 02:52:43;;;;;;;2.03;1.50;;;13.10;99.90;;;;;;5036549;28;20546;-72
2023/10/27 02:55:09;;;;;;;3.10;1.73;;;13.00;99.90;;;;;;5036155;28;20173;-71
2023/10/27 02:57:34;;;;;;;2.00;1.50;;;13.00;99.90;;;;;;5035271;28;20176;-70
2023/10/27 03:00:00;;;;;;;5.43;2.07;;;13.00;99.90;;;;;;5035380;28;20512;-71
2023/10/27 03:02:27;;;;;;;3.30;1.60;;;13.00;99.90;;;;;;5035455;28;20663;-71
2023/10/27 03:04:55;;;;;;;4.90;1.47;;;12.90;99.90;;;;;;5017556;28;20621;-72
2023/10/27 03:07:20;;;;;;;2.60;1.53;;;12.90;99.90;;;;;;5034897;28;20400;-72
2023/10/27 03:09:46;;;;;;;3.53;1.97;;;13.00;99.90;;;;;;5035425;28;20417;-72
2023/10/27 03:12:12;;;;;;;3.00;1.37;;;13.00;99.90;;;;;;5017148;28;20592;-72
2023/10/27 03:14:37;;;;;;;2.37;1.67;;;12.90;99.90;;;;;;5035341;28;20159;-72
2023/10/27 03:17:03;;;;;;;1.17;1.07;;;12.90;99.90;;;;;;5034945;28;20266;-72
2023/10/27 03:19:29;;;;;;;4.43;1.70;;;12.90;99.90;;;;;;5034865;28;20245;-71
2023/10/27 03:21:54;;;;;;;3.40;1.90;;;12.80;99.90;;;;;;5017165;28;20672;-72
2023/10/27 03:24:20;;;;;;;3.43;1.60;;;12.80;99.90;;;;;;5035057;28;20186;-72
2023/10/27 03:26:45;;;;;;;4.93;1.60;;;12.70;99.90;;;;;;5034736;28;20188;-72
2023/10/27 03:29:11;;;;;;;3.47;1.60;;;12.70;99.90;;;;;;5035066;28;20215;-72
2023/10/27 03:31:36;;;;;;;4.90;1.40;;;12.70;99.90;;;;;;5034771;28;20177;-71
2023/10/27 03:34:02;;;;;;;2.30;1.40;;;12.60;99.90;;;;;;5034337;28;20230;-71
2023/10/27 03:36:28;;;;;;;2.50;1.50;;;12.70;99.90;;;;;;5034870;28;20171;-72
2023/10/27 03:38:53;;;;;;;2.13;1.77;;;12.80;99.90;;;;;;5034772;28;20683;-71
2023/10/27 03:41:19;;;;;;;1.67;1.13;;;12.80;99.90;;;;;;5034653;28;20402;-71
2023/10/27 03:43:45;;;;;;;2.37;1.30;;;12.80;99.90;;;;;;5034453;28;20273;-71
2023/10/27 03:46:10;;;;;;;2.20;1.30;;;12.70;99.90;;;;;;5034673;28;20244;-71
2023/10/27 03:48:36;;;;;;;2.80;1.40;;;12.70;99.90;;;;;;5034432;28;20611;-71
2023/10/27 03:51:05;;;;;;;4.97;1.80;;;12.80;99.90;;;;;;5034890;28;20545;-71
2023/10/27 03:53:34;;;;;;;2.07;1.57;;;12.70;99.90;;;;;;5034682;28;20297;-71
2023/10/27 03:55:59;;;;;;;2.40;1.37;;;12.50;99.90;;;;;;5016803;28;20433;-71
2023/10/27 03:58:25;;;;;;;1.30;1.17;;;12.40;99.90;;;;;;5033850;28;20445;-71
2023/10/27 04:00:50;;;;;;;2.17;1.50;;;12.50;99.90;;;;;;5034873;28;20529;-71
2023/10/27 04:03:16;;;;;;;4.17;1.47;;;12.70;99.90;;;;;;5034063;28;20186;-71
2023/10/27 04:05:42;;;;;;;2.03;1.40;;;12.70;99.90;;;;;;5034093;28;20661;-71
2023/10/27 04:08:07;;;;;;;1.40;1.00;;;12.70;99.90;;;;;;5033966;28;20168;-71
2023/10/27 04:10:37;;;;;;;2.40;1.30;;;12.70;99.90;;;;;;5034147;28;20163;-71
2023/10/27 04:13:03;;;;;;;1.97;1.53;;;12.70;99.90;;;;;;5034080;28;20206;-71
2023/10/27 04:15:29;;;;;;;1.47;1.37;;;12.70;99.90;;;;;;5034230;28;20913;-71
2023/10/27 04:17:55;;;;;;;2.20;1.33;;;12.70;99.90;;;;;;5033728;28;20946;-71
2023/10/27 04:20:21;;;;;;;2.57;1.67;;;12.70;99.90;;;;;;5034069;28;20412;-71
2023/10/27 04:22:46;;;;;;;2.97;1.37;;;12.40;99.90;;;;;;5033665;28;20688;-71
2023/10/27 04:25:12;;;;;;;4.60;1.80;;;12.50;99.90;;;;;;5033179;28;20546;-71
2023/10/27 04:27:38;;;;;;;2.70;1.20;;;12.60;99.90;;;;;;5033776;28;20175;-71
2023/10/27 04:30:07;;;;;;;2.50;1.50;;;12.70;99.90;;;;;;5033459;28;20165;-71
2023/10/27 04:32:37;;;;;;;4.73;1.60;;;12.70;99.90;;;;;;5033490;28;20514;-71
2023/10/27 04:35:03;;;;;;;1.37;1.10;;;12.70;99.90;;;;;;5032722;28;20413;-72
2023/10/27 04:37:32;;;;;;;1.73;1.40;;;12.60;99.90;;;;;;5023203;28;20406;-71
2023/10/27 04:40:00;;;;;;;1.93;1.40;;;12.60;99.90;;;;;;5024043;28;20414;-74
2023/10/27 04:42:26;;;;;;;2.67;1.40;;;12.70;99.90;;;;;;5012316;28;20946;-72
2023/10/27 04:44:52;;;;;;;2.80;1.37;;;12.70;99.90;;;;;;5033690;28;20409;-71
2023/10/27 04:47:19;;;;;;;4.13;1.43;;;12.70;99.90;;;;;;5033367;28;20409;-72
2023/10/27 04:49:45;;;;;;;3.53;1.30;;;12.70;99.90;;;;;;5033490;28;20556;-72
2023/10/27 04:52:10;;;;;;;3.10;1.20;;;12.70;99.90;;;;;;5033226;28;20409;-71
2023/10/27 04:54:36;;;;;;;2.90;1.53;;;12.70;99.90;;;;;;5033591;28;20401;-72
2023/10/27 04:57:05;;;;;;;2.80;1.20;;;12.60;99.90;;;;;;5033224;28;20195;-71
2023/10/27 04:59:33;;;;;;;4.43;1.20;;;12.60;99.90;;;;;;5033174;28;20240;-71
2023/10/27 05:01:59;;;;;;;3.77;1.17;;;12.40;99.90;;;;;;5032860;28;20832;-72
2023/10/27 05:04:25;;;;;;;1.10;0.97;;;12.40;99.90;;;;;;5033303;28;20424;-72
2023/10/27 05:06:51;;;;;;;2.40;1.33;;;12.50;99.90;;;;;;5033560;28;21720;-72
2023/10/27 05:09:18;;;;;;;2.47;1.37;;;12.50;99.90;;;;;;5033124;28;20413;-72
2023/10/27 05:11:45;;;;;;;3.50;1.47;;;12.50;99.90;;;;;;5033223;28;20733;-72
2023/10/27 05:14:12;;;;;;;37.97;22.30;;;12.40;99.90;;;;;;5032923;28;20532;-72
2023/10/27 05:16:38;;;;;;;82.30;43.20;;;12.40;99.90;;;;;;5033012;28;20987;-73
2023/10/27 05:19:04;;;;;;;18.00;13.07;;;12.60;99.90;;;;;;5032979;28;20627;-72
2023/10/27 05:21:30;;;;;;;13.40;9.60;;;12.70;99.90;;;;;;5026606;28;20263;-72
2023/10/27 05:23:56;;;;;;;10.40;5.53;;;12.80;99.90;;;;;;5022460;28;20914;-73
2023/10/27 05:26:22;;;;;;;6.40;3.70;;;12.80;99.90;;;;;;5023278;28;20403;-72
2023/10/27 05:28:49;;;;;;;4.53;2.93;;;12.90;99.90;;;;;;5022676;28;20405;-73
2023/10/27 05:31:14;;;;;;;3.40;1.87;;;12.90;99.90;;;;;;5031475;28;20413;-72
2023/10/27 05:33:40;;;;;;;2.93;1.80;;;12.90;99.90;;;;;;5022765;28;20432;-72
2023/10/27 05:36:05;;;;;;;1.60;1.37;;;12.90;99.90;;;;;;5021342;28;20171;-72
2023/10/27 05:38:31;;;;;;;3.13;1.53;;;13.00;99.90;;;;;;5023917;28;20633;-72
2023/10/27 05:40:56;;;;;;;1.70;1.00;;;12.90;99.90;;;;;;5022790;28;20590;-72
2023/10/27 05:43:22;;;;;;;1.40;1.30;;;12.80;99.90;;;;;;5021516;28;20199;-72
2023/10/27 05:45:48;;;;;;;1.53;1.20;;;12.80;99.90;;;;;;5023321;28;20253;-72
2023/10/27 05:48:13;;;;;;;3.30;1.47;;;12.90;99.90;;;;;;5022848;28;20177;-72
2023/10/27 05:50:39;;;;;;;2.37;1.50;;;12.90;99.90;;;;;;5024149;28;20179;-72
2023/10/27 05:53:04;;;;;;;4.10;1.70;;;12.70;99.90;;;;;;5021166;28;20204;-73
2023/10/27 05:55:30;;;;;;;1.70;1.60;;;12.70;99.90;;;;;;5023065;28;20175;-72
2023/10/27 05:57:55;;;;;;;2.70;1.73;;;12.70;99.90;;;;;;5023290;28;20207;-71
2023/10/27 06:00:21;;;;;;;3.40;2.10;;;12.60;99.90;;;;;;5023017;28;20175;-72
2023/10/27 06:02:52;;;;;;;30.63;21.30;;;12.60;99.90;;;;;;5021060;28;20198;-72
2023/10/27 06:05:19;;;;;;;3.70;1.80;;;12.70;99.90;;;;;;5019526;28;20409;-72
2023/10/27 06:07:45;;;;;;;1.77;1.13;;;12.70;99.90;;;;;;5023804;28;20405;-72
2023/10/27 06:10:11;;;;;;;1.50;1.40;;;12.70;99.90;;;;;;5024513;28;20411;-72
2023/10/27 06:12:37;;;;;;;1.83;1.10;;;12.50;99.90;;;;;;5022247;28;20204;-72
2023/10/27 06:15:02;;;;;;;2.70;1.73;;;12.40;99.90;;;;;;4995219;28;20160;-72
2023/10/27 06:17:29;;;;;;;1.80;1.70;;;12.40;99.90;;;;;;5001701;28;20178;-72
2023/10/27 06:19:55;;;;;;;1.77;1.43;;;12.50;99.90;;;;;;5033232;28;20563;-71
2023/10/27 06:22:21;;;;;;;2.03;1.40;;;12.30;99.90;;;;;;5036407;28;20457;-71
2023/10/27 06:24:47;;;;;;;2.80;1.40;;;12.30;99.90;;;;;;5036179;28;20165;-72
2023/10/27 06:27:12;;;;;;;2.27;1.83;;;12.40;99.90;;;;;;5037599;28;20586;-71
2023/10/27 06:29:38;;;;;;;2.47;1.60;;;12.40;99.90;;;;;;5042724;28;20407;-71
2023/10/27 06:32:04;;;;;;;1.90;1.70;;;12.30;99.90;;;;;;5038755;28;20183;-72
2023/10/27 06:34:29;;;;;;;2.03;1.70;;;12.30;99.90;;;;;;5039163;28;20235;-72
2023/10/27 06:36:56;;;;;;;3.13;2.30;;;12.40;99.90;;;;;;5046786;28;20177;-71
2023/10/27 06:39:22;;;;;;;4.07;2.60;;;12.50;99.90;;;;;;5046122;28;20238;-71
2023/10/27 06:41:49;;;;;;;2.23;2.03;;;12.50;99.90;;;;;;5037231;28;20402;-72
2023/10/27 06:44:15;;;;;;;2.23;1.50;;;12.60;99.90;;;;;;5035662;28;20187;-72
2023/10/27 06:46:44;;;;;;;2.47;1.80;;;12.50;99.90;;;;;;5035707;28;20712;-71
2023/10/27 06:49:13;;;;;;;1.50;1.07;;;12.40;99.90;;;;;;5015766;28;20164;-71
2023/10/27 06:51:38;;;;;;;2.40;1.00;;;12.50;99.90;;;;;;5015733;28;20895;-71
2023/10/27 06:54:04;;;;;;;4.83;1.00;;;12.50;99.90;;;;;;5018062;28;20432;-72
2023/10/27 06:56:29;;;;;;;1.93;1.20;;;12.50;99.90;;;;;;5023982;28;20650;-72
2023/10/27 06:58:55;;;;;;;1.53;1.00;;;12.50;99.90;;;;;;5026249;28;20196;-71
2023/10/27 07:01:21;;;;;;;3.47;1.17;;;12.70;99.90;;;;;;5000706;28;20174;-71
2023/10/27 07:03:46;;;;;;;1.47;0.93;;;12.90;99.90;;;;;;5032229;28;20660;-71
2023/10/27 07:06:12;;;;;;;4.03;0.90;;;12.80;99.90;;;;;;5035888;28;20181;-71
2023/10/27 07:08:38;;;;;;;1.60;1.03;;;13.00;99.90;;;;;;5035212;28;20168;-71
2023/10/27 07:11:04;;;;;;;2.17;1.20;;;13.10;99.90;;;;;;5035533;28;20408;-72
2023/10/27 07:13:30;;;;;;;1.70;1.40;;;12.90;99.90;;;;;;5034996;28;20214;-72
2023/10/27 07:15:56;;;;;;;1.07;0.70;;;13.00;99.90;;;;;;5017316;28;20619;-72
2023/10/27 07:18:22;;;;;;;1.17;0.80;;;12.90;99.90;;;;;;5017408;28;20439;-72
2023/10/27 07:20:48;;;;;;;1.10;1.00;;;12.90;99.90;;;;;;5035097;28;20987;-72
2023/10/27 07:23:16;;;;;;;1.40;1.10;;;12.90;99.90;;;;;;5035265;28;20428;-72
2023/10/27 07:25:41;;;;;;;1.90;0.80;;;13.00;99.90;;;;;;5035558;28;20172;-73
2023/10/27 07:28:08;;;;;;;0.70;0.60;;;13.30;99.90;;;;;;5034841;28;20406;-72
2023/10/27 07:30:33;;;;;;;1.40;1.00;;;13.40;99.90;;;;;;5034766;28;20171;-72
2023/10/27 07:33:00;;;;;;;1.73;0.90;;;13.50;99.90;;;;;;5034306;28;20441;-72
2023/10/27 07:35:26;;;;;;;1.50;0.70;;;13.30;99.90;;;;;;5017099;28;20262;-72
2023/10/27 07:37:52;;;;;;;1.50;0.70;;;13.20;99.90;;;;;;5034824;28;20982;-72
2023/10/27 07:40:19;;;;;;;2.30;0.87;;;13.00;99.90;;;;;;5034714;28;20520;-71
2023/10/27 07:42:44;;;;;;;1.23;1.00;;;13.00;99.90;;;;;;5034827;28;20412;-72
2023/10/27 07:45:10;;;;;;;2.23;0.90;;;13.00;99.90;;;;;;5016770;28;20427;-72
2023/10/27 07:47:36;;;;;;;0.80;0.60;;;13.00;99.90;;;;;;5034468;28;20508;-72
2023/10/27 07:50:05;;;;;;;1.50;1.00;;;13.10;99.90;;;;;;5034536;28;20828;-72
2023/10/27 07:52:30;;;;;;;1.10;0.73;;;13.10;99.90;;;;;;5034777;28;20249;-72
2023/10/27 07:54:56;;;;;;;1.40;0.70;;;13.30;99.90;;;;;;5035405;28;20421;-72
2023/10/27 07:57:21;;;;;;;1.20;0.70;;;13.30;99.90;;;;;;5016593;28;20170;-72
2023/10/27 07:59:47;;;;;;;0.80;0.60;;;13.30;99.90;;;;;;5034543;28;20211;-72
2023/10/27 08:02:13;;;;;;;2.43;0.80;;;13.20;99.90;;;;;;5034144;28;20168;-72
2023/10/27 08:04:38;;;;;;;1.57;0.60;;;13.30;99.90;;;;;;5034183;28;20175;-71
2023/10/27 08:07:05;;;;;;;1.30;0.67;;;13.30;99.90;;;;;;5034525;28;20181;-72
2023/10/27 08:09:31;;;;;;;0.90;0.50;;;13.00;99.90;;;;;;5034363;28;20191;-72
2023/10/27 08:11:57;;;;;;;0.93;0.50;;;13.00;99.90;;;;;;5033992;28;20424;-72
2023/10/27 08:14:23;;;;;;;0.90;0.50;;;13.20;99.90;;;;;;5072996;22;20301;-71
2023/10/27 08:16:49;;;;;;;0.87;0.63;;;13.30;99.90;;;;;;5053258;28;20291;-71
2023/10/27 08:19:15;;;;;;;0.90;0.50;;;13.40;99.90;;;;;;5052590;28;20468;-71
2023/10/27 08:21:41;;;;;;;2.57;0.70;;;13.40;99.90;;;;;;5053122;28;20209;-71
2023/10/27 08:24:06;;;;;;;1.00;0.50;;;13.60;99.90;;;;;;5052849;28;20587;-71
2023/10/27 08:26:32;;;;;;;1.37;0.80;;;13.60;99.90;;;;;;5052549;28;20500;-70
2023/10/27 08:28:58;;;;;;;1.80;0.70;;;13.50;99.90;;;;;;5052876;28;20173;-71
2023/10/27 08:31:24;;;;;;;1.00;0.60;;;13.50;99.90;;;;;;5052177;28;20239;-71
2023/10/27 08:33:49;;;;;;;0.90;0.60;;;13.50;99.90;;;;;;5052798;28;20201;-71
2023/10/27 08:36:15;;;;;;;1.97;0.70;;;13.60;99.90;;;;;;5052943;28;20246;-71
2023/10/27 08:38:41;;;;;;;1.50;0.90;;;13.80;99.90;;;;;;5052479;28;20186;-70
2023/10/27 08:41:08;;;;;;;1.90;1.10;;;13.70;99.90;;;;;;5052165;28;20283;-70
2023/10/27 08:43:34;;;;;;;3.23;1.40;;;13.70;99.90;;;;;;5051394;28;20417;-71
2023/10/27 08:46:05;;;;;;;1.30;1.00;;;13.70;99.90;;;;;;5052401;28;20426;-71
2023/10/27 08:48:32;;;;;;;1.70;0.90;;;13.60;99.90;;;;;;5052389;28;20399;-71
2023/10/27 08:51:04;;;;;;;1.87;0.80;;;13.50;99.90;;;;;;5052592;28;20500;-71
2023/10/27 08:53:30;;;;;;;1.63;0.87;;;13.50;99.90;;;;;;5052733;28;20432;-71
2023/10/27 08:55:58;;;;;;;1.47;0.70;;;13.50;99.90;;;;;;5052686;28;20408;-71
2023/10/27 08:58:24;;;;;;;0.80;0.50;;;13.70;99.90;;;;;;5052036;28;20480;-70
2023/10/27 09:00:49;;;;;;;1.30;0.90;;;13.70;99.90;;;;;;5051918;28;20447;-70
2023/10/27 09:03:16;;;;;;;0.93;0.60;;;13.90;99.90;;;;;;5051698;28;20187;-71
2023/10/27 09:05:42;;;;;;;0.83;0.50;;;13.90;99.90;;;;;;5051905;28;20166;-71
2023/10/27 09:08:08;;;;;;;0.80;0.50;;;13.90;99.90;;;;;;5052647;28;20423;-70
2023/10/27 09:10:34;;;;;;;0.70;0.50;;;13.80;99.90;;;;;;5052187;28;20417;-71
2023/10/27 09:13:00;;;;;;;1.63;0.70;;;13.90;99.90;;;;;;5051755;28;20440;-71
2023/10/27 09:15:25;;;;;;;0.80;0.70;;;13.90;99.90;;;;;;5052276;28;20154;-72
2023/10/27 09:17:56;;;;;;;1.03;0.60;;;13.80;99.90;;;;;;5033883;28;20208;-71
2023/10/27 09:20:23;;;;;;;0.80;0.60;;;13.80;99.90;;;;;;5052135;28;20167;-70
2023/10/27 09:23:00;;;;;;;3.20;0.57;;;13.70;99.90;;;;;;5051882;28;20424;-71
2023/10/27 09:25:30;;;;;;;2.63;1.47;;;13.90;99.90;;;;;;5033655;28;20415;-71
2023/10/27 09:27:58;;;;;;;0.80;0.50;;;13.80;99.90;;;;;;5051802;28;20462;-70
2023/10/27 09:30:28;;;;;;;1.47;0.77;;;14.00;99.90;;;;;;5051646;28;20955;-71
2023/10/27 09:32:55;;;;;;;1.77;0.60;;;14.00;99.90;;;;;;5031768;28;20800;-71
2023/10/27 09:35:22;;;;;;;2.17;0.80;;;14.10;99.90;;;;;;5031832;28;20444;-72
2023/10/27 09:37:49;;;;;;;1.23;0.60;;;13.90;99.90;;;;;;5038070;28;20858;-70
2023/10/27 09:40:15;;;;;;;0.80;0.50;;;13.80;99.90;;;;;;5051837;28;20419;-71
2023/10/27 09:42:41;;;;;;;1.87;0.60;;;13.80;99.90;;;;;;5051591;28;20406;-71
2023/10/27 09:45:08;;;;;;;1.93;0.77;;;13.80;99.90;;;;;;5051527;28;20456;-70
2023/10/27 09:47:35;;;;;;;1.00;0.80;;;13.70;99.90;;;;;;5050542;28;20399;-71
2023/10/27 09:50:05;;;;;;;1.07;0.70;;;13.90;99.90;;;;;;5051354;28;20401;-72
2023/10/27 09:52:32;;;;;;;3.23;0.90;;;14.10;99.90;;;;;;5049472;28;20500;-72
2023/10/27 09:54:58;;;;;;;1.47;0.70;;;14.00;99.90;;;;;;5051003;28;20430;-73
2023/10/27 09:57:25;;;;;;;1.00;0.80;;;13.60;99.90;;;;;;5053991;28;20436;-72
2023/10/27 09:59:52;;;;;;;1.40;0.90;;;13.80;99.90;;;;;;5054057;28;20468;-71
2023/10/27 10:02:18;;;;;;;1.17;0.93;;;13.70;99.90;;;;;;5035958;28;20917;-73
2023/10/27 10:04:53;;;;;;;1.90;0.80;;;13.60;99.90;;;;;;5053913;28;20434;-73
2023/10/27 10:07:33;;;;;;;1.00;0.80;;;13.80;99.90;;;;;;5055442;28;20774;-71
2023/10/27 10:10:19;;;;;;;1.43;0.90;;;13.40;99.90;;;;;;5055361;28;20392;-71
2023/10/27 10:13:12;;;;;;;1.60;0.90;;;13.50;99.90;;;;;;5055091;28;20446;-70
2023/10/27 10:15:39;;;;;;;1.43;0.80;;;13.50;99.90;;;;;;5055260;28;20437;-71
2023/10/27 10:18:08;;;;;;;1.50;1.00;;;13.70;99.90;;;;;;5055080;28;20828;-71
2023/10/27 10:20:47;;;;;;;2.00;1.27;;;13.70;99.90;;;;;;5055233;28;20777;-70
2023/10/27 10:23:13;;;;;;;1.67;0.90;;;14.00;99.90;;;;;;5054910;28;20428;-72
2023/10/27 10:25:58;;;;;;;2.00;1.40;;;14.20;99.90;;;;;;5055376;28;20887;-71
2023/10/27 10:28:29;;;;;;;1.70;1.03;;;14.20;99.90;;;;;;5055020;28;20401;-70
2023/10/27 10:31:07;;;;;;;2.53;1.10;;;13.90;99.90;;;;;;5055408;28;20415;-69
2023/10/27 10:33:45;;;;;;;1.83;1.20;;;14.20;99.90;;;;;;5055246;28;20493;-72
2023/10/27 10:36:22;;;;;;;1.60;1.07;;;14.40;99.90;;;;;;5054519;28;20416;-72
2023/10/27 10:38:53;;;;;;;3.63;1.30;;;14.40;99.90;;;;;;5068505;28;20486;-72
2023/10/27 10:41:19;;;;;;;3.03;1.00;;;14.30;99.90;;;;;;5075093;28;20402;-71
2023/10/27 10:44:06;;;;;;;1.60;1.33;;;14.40;99.90;;;;;;5074766;28;20515;-72
2023/10/27 10:46:32;;;;;;;1.50;1.00;;;14.40;99.90;;;;;;5075157;28;20176;-71
2023/10/27 10:48:57;;;;;;;1.30;1.10;;;15.00;99.90;;;;;;5059516;28;20461;-71
2023/10/27 10:51:30;;;;;;;2.17;1.33;;;16.40;99.90;;;;;;5055046;28;20177;-71
2023/10/27 10:53:56;;;;;;;1.90;0.93;;;17.80;99.90;;;;;;5054525;28;20676;-71
2023/10/27 10:56:23;;;;;;;2.37;1.13;;;19.70;99.90;;;;;;5054489;28;20436;-71
2023/10/27 10:58:49;;;;;;;3.40;1.37;;;20.30;99.90;;;;;;5054327;28;20240;-72
2023/10/27 11:01:16;;;;;;;4.90;1.93;;;20.20;99.90;;;;;;5054406;28;20410;-72
2023/10/27 11:03:47;;;;;;;7.03;1.87;;;20.20;99.90;;;;;;5054205;28;20197;-71
2023/10/27 11:06:13;;;;;;;3.07;1.50;;;20.10;99.90;;;;;;5053536;28;20433;-72
2023/10/27 11:08:39;;;;;;;2.80;1.13;;;19.30;99.90;;;;;;5053974;28;20416;-72
2023/10/27 11:11:06;;;;;;;3.90;2.10;;;20.00;99.90;;;;;;5054302;28;20559;-71
2023/10/27 11:13:40;;;;;;;6.93;2.23;;;20.50;99.90;;;;;;5034262;28;20449;-72
2023/10/27 11:16:18;;;;;;;2.20;1.10;;;21.50;99.90;;;;;;5034370;28;20391;-70
2023/10/27 11:18:45;;;;;;;3.63;1.00;;;21.10;99.90;;;;;;5053000;28;20911;-71
2023/10/27 11:21:19;;;;;;;3.90;1.40;;;20.80;99.90;;;;;;5054294;28;20757;-73
2023/10/27 11:23:45;;;;;;;3.13;1.40;;;20.90;99.90;;;;;;5053829;28;20432;-71
2023/10/27 11:26:11;;;;;;;3.67;1.30;;;21.00;99.90;;;;;;5053981;28;20870;-69
2023/10/27 11:28:41;;;;;;;2.10;1.03;;;20.70;99.90;;;;;;5053990;28;20441;-71
2023/10/27 11:31:15;;;;;;;2.27;1.17;;;20.40;99.90;;;;;;5053864;28;20167;-71
2023/10/27 11:34:00;;;;;;;3.57;1.47;;;19.80;99.90;;;;;;5054060;28;20477;-71
2023/10/27 11:36:27;;;;;;;4.27;1.50;;;21.20;99.90;;;;;;5053153;28;20401;-70
2023/10/27 11:38:53;;;;;;;2.03;1.17;;;22.40;99.90;;;;;;5033978;28;20529;-71
2023/10/27 11:41:19;;;;;;;1.93;1.10;;;23.10;99.10;;;;;;5033874;28;20430;-71
2023/10/27 11:43:45;;;;;;;2.57;1.50;;;23.60;97.40;;;;;;5033466;28;20187;-71
2023/10/27 11:46:16;;;;;;;2.67;1.37;;;22.90;98.60;;;;;;5034046;28;20831;-71
2023/10/27 11:48:43;;;;;;;3.47;1.43;;;21.00;99.60;;;;;;5051924;28;20438;-70
2023/10/27 11:51:09;;;;;;;4.10;1.93;;;20.10;99.90;;;;;;5054536;28;20450;-71
2023/10/27 11:53:43;;;;;;;2.60;1.57;;;19.40;99.90;;;;;;5053488;28;20940;-71
2023/10/27 11:56:09;;;;;;;1.93;1.17;;;19.40;99.90;;;;;;5054007;28;20411;-72
2023/10/27 11:58:35;;;;;;;3.90;1.30;;;19.10;99.90;;;;;;5053689;28;20872;-71
2023/10/27 12:01:01;;;;;;;2.83;1.00;;;18.50;99.90;;;;;;5053423;28;20416;-71
2023/10/27 12:03:26;;;;;;;2.37;1.27;;;19.00;99.90;;;;;;5053257;28;20269;-70
2023/10/27 12:05:52;;;;;;;2.03;1.10;;;19.00;99.90;;;;;;5053374;28;20554;-71
2023/10/27 12:08:18;;;;;;;3.13;1.43;;;19.60;99.90;;;;;;5052970;28;20198;-71
2023/10/27 12:10:43;;;;;;;3.37;1.33;;;20.10;99.90;;;;;;5053040;28;20174;-72
2023/10/27 12:13:09;;;;;;;4.80;1.20;;;20.80;99.90;;;;;;5053019;28;20272;-71
2023/10/27 12:15:36;;;;;;;2.03;1.30;;;20.80;99.40;;;;;;5053105;28;20239;-71
2023/10/27 12:18:08;;;;;;;5.87;1.80;;;21.20;99.20;;;;;;5052171;28;20186;-71
2023/10/27 12:20:38;;;;;;;3.80;0.80;;;20.80;99.30;;;;;;5052074;28;20401;-71
2023/10/27 12:23:07;;;;;;;3.00;1.50;;;19.70;99.90;;;;;;5053267;28;20425;-70
2023/10/27 12:25:34;;;;;;;2.03;1.20;;;20.40;99.90;;;;;;5053053;28;20471;-71
2023/10/27 12:27:59;;;;;;;5.90;1.53;;;21.40;99.10;;;;;;5052973;28;20432;-71
2023/10/27 12:30:25;;;;;;;2.73;1.30;;;21.30;98.10;;;;;;5052758;28;20409;-72
2023/10/27 12:32:53;;;;;;;2.53;1.40;;;21.80;98.10;;;;;;5052674;28;20568;-71
2023/10/27 12:35:21;;;;;;;3.30;0.90;;;23.00;97.40;;;;;;5052413;28;20265;-71
2023/10/27 12:37:47;;;;;;;2.23;1.30;;;22.60;95.90;;;;;;5052275;28;20875;-71
2023/10/27 12:40:13;;;;;;;1.80;1.00;;;23.40;95.80;;;;;;5051911;28;20453;-72
2023/10/27 12:42:39;;;;;;;2.70;1.00;;;23.70;94.90;;;;;;5052041;28;20409;-71